sensor_id;sensor_type;location;lat;lon;timestamp;P1;durP1;ratioP1;P2;durP2;ratioP2
24357;SDS011;13668;52.154;5.580;2023-08-24T00:02:02;2.97;;;2.20;;
24357;SDS011;13668;52.154;5.580;2023-08-24T00:04:28;3.17;;;2.67;;
24357;SDS011;13668;52.154;5.580;2023-08-24T00:06:54;2.80;;;2.60;;
24357;SDS011;13668;52.154;5.580;2023-08-24T00:09:20;3.22;;;2.92;;
24357;SDS011;13668;52.154;5.580;2023-08-24T00:11:46;3.92;;;2.63;;
24357;SDS011;13668;52.154;5.580;2023-08-24T00:14:12;4.35;;;2.25;;
24357;SDS011;13668;52.154;5.580;2023-08-24T00:16:38;2.47;;;2.28;;
24357;SDS011;13668;52.154;5.580;2023-08-24T00:19:05;6.50;;;3.13;;
24357;SDS011;13668;52.154;5.580;2023-08-24T00:21:32;2.65;;;2.22;;
24357;SDS011;13668;52.154;5.580;2023-08-24T00:23:58;3.38;;;2.55;;
24357;SDS011;13668;52.154;5.580;2023-08-24T00:26:24;3.53;;;2.63;;
24357;SDS011;13668;52.154;5.580;2023-08-24T00:28:50;3.28;;;2.42;;
24357;SDS011;13668;52.154;5.580;2023-08-24T00:31:17;2.60;;;2.40;;
24357;SDS011;13668;52.154;5.580;2023-08-24T00:33:43;2.80;;;2.50;;
24357;SDS011;13668;52.154;5.580;2023-08-24T00:36:09;3.35;;;3.05;;
24357;SDS011;13668;52.154;5.580;2023-08-24T00:38:35;2.50;;;2.30;;
24357;SDS011;13668;52.154;5.580;2023-08-24T00:41:01;3.42;;;3.00;;
24357;SDS011;13668;52.154;5.580;2023-08-24T00:43:28;2.55;;;2.30;;
24357;SDS011;13668;52.154;5.580;2023-08-24T00:45:58;3.30;;;2.50;;
24357;SDS011;13668;52.154;5.580;2023-08-24T00:48:25;2.85;;;2.63;;
24357;SDS011;13668;52.154;5.580;2023-08-24T00:50:53;3.67;;;2.95;;
24357;SDS011;13668;52.154;5.580;2023-08-24T00:53:19;4.50;;;3.13;;
24357;SDS011;13668;52.154;5.580;2023-08-24T00:55:46;3.22;;;2.80;;
24357;SDS011;13668;52.154;5.580;2023-08-24T00:58:13;4.07;;;2.67;;
24357;SDS011;13668;52.154;5.580;2023-08-24T01:00:39;3.40;;;2.72;;
24357;SDS011;13668;52.154;5.580;2023-08-24T01:03:05;2.55;;;2.08;;
24357;SDS011;13668;52.154;5.580;2023-08-24T01:05:31;3.83;;;2.65;;
24357;SDS011;13668;52.154;5.580;2023-08-24T01:07:57;5.63;;;3.10;;
24357;SDS011;13668;52.154;5.580;2023-08-24T01:10:23;3.38;;;3.08;;
24357;SDS011;13668;52.154;5.580;2023-08-24T01:12:52;3.38;;;3.08;;
24357;SDS011;13668;52.154;5.580;2023-08-24T01:15:29;2.92;;;2.60;;
24357;SDS011;13668;52.154;5.580;2023-08-24T01:17:58;2.70;;;2.45;;
24357;SDS011;13668;52.154;5.580;2023-08-24T01:20:26;3.97;;;3.08;;
24357;SDS011;13668;52.154;5.580;2023-08-24T01:22:58;2.92;;;2.47;;
24357;SDS011;13668;52.154;5.580;2023-08-24T01:25:36;2.90;;;2.60;;
24357;SDS011;13668;52.154;5.580;2023-08-24T01:28:04;3.25;;;2.67;;
24357;SDS011;13668;52.154;5.580;2023-08-24T01:30:31;4.10;;;2.92;;
24357;SDS011;13668;52.154;5.580;2023-08-24T01:32:57;3.08;;;2.45;;
24357;SDS011;13668;52.154;5.580;2023-08-24T01:35:23;2.53;;;2.33;;
24357;SDS011;13668;52.154;5.580;2023-08-24T01:37:48;3.22;;;2.50;;
24357;SDS011;13668;52.154;5.580;2023-08-24T01:40:16;3.92;;;2.95;;
24357;SDS011;13668;52.154;5.580;2023-08-24T01:42:56;3.40;;;2.92;;
24357;SDS011;13668;52.154;5.580;2023-08-24T01:45:27;3.13;;;2.55;;
24357;SDS011;13668;52.154;5.580;2023-08-24T01:47:55;2.92;;;2.60;;
24357;SDS011;13668;52.154;5.580;2023-08-24T01:50:22;2.88;;;2.55;;
24357;SDS011;13668;52.154;5.580;2023-08-24T01:52:48;5.05;;;3.05;;
24357;SDS011;13668;52.154;5.580;2023-08-24T01:55:17;3.22;;;2.90;;
24357;SDS011;13668;52.154;5.580;2023-08-24T01:57:43;3.72;;;2.83;;
24357;SDS011;13668;52.154;5.580;2023-08-24T02:00:09;4.82;;;3.25;;
24357;SDS011;13668;52.154;5.580;2023-08-24T02:02:36;3.35;;;2.47;;
24357;SDS011;13668;52.154;5.580;2023-08-24T02:05:02;3.85;;;3.13;;
24357;SDS011;13668;52.154;5.580;2023-08-24T02:07:28;3.03;;;2.72;;
24357;SDS011;13668;52.154;5.580;2023-08-24T02:09:54;3.72;;;2.30;;
24357;SDS011;13668;52.154;5.580;2023-08-24T02:12:20;4.18;;;3.20;;
24357;SDS011;13668;52.154;5.580;2023-08-24T02:14:46;3.55;;;3.08;;
24357;SDS011;13668;52.154;5.580;2023-08-24T02:17:12;3.13;;;2.60;;
24357;SDS011;13668;52.154;5.580;2023-08-24T02:19:39;3.97;;;2.83;;
24357;SDS011;13668;52.154;5.580;2023-08-24T02:22:06;3.45;;;2.85;;
24357;SDS011;13668;52.154;5.580;2023-08-24T02:24:32;5.97;;;3.17;;
24357;SDS011;13668;52.154;5.580;2023-08-24T02:26:58;4.05;;;3.20;;
24357;SDS011;13668;52.154;5.580;2023-08-24T02:29:24;3.85;;;3.20;;
24357;SDS011;13668;52.154;5.580;2023-08-24T02:31:50;3.83;;;2.63;;
24357;SDS011;13668;52.154;5.580;2023-08-24T02:34:16;3.33;;;2.95;;
24357;SDS011;13668;52.154;5.580;2023-08-24T02:36:42;5.25;;;3.50;;
24357;SDS011;13668;52.154;5.580;2023-08-24T02:39:08;4.40;;;3.60;;
24357;SDS011;13668;52.154;5.580;2023-08-24T02:41:35;3.70;;;3.30;;
24357;SDS011;13668;52.154;5.580;2023-08-24T02:44:01;4.45;;;4.05;;
24357;SDS011;13668;52.154;5.580;2023-08-24T02:46:27;3.72;;;3.35;;
24357;SDS011;13668;52.154;5.580;2023-08-24T02:48:53;5.68;;;4.20;;
24357;SDS011;13668;52.154;5.580;2023-08-24T02:51:21;3.90;;;3.55;;
24357;SDS011;13668;52.154;5.580;2023-08-24T02:53:47;4.05;;;3.45;;
24357;SDS011;13668;52.154;5.580;2023-08-24T02:56:13;4.97;;;3.45;;
24357;SDS011;13668;52.154;5.580;2023-08-24T02:58:39;5.28;;;3.42;;
24357;SDS011;13668;52.154;5.580;2023-08-24T03:01:05;3.85;;;3.05;;
24357;SDS011;13668;52.154;5.580;2023-08-24T03:03:34;4.28;;;3.88;;
24357;SDS011;13668;52.154;5.580;2023-08-24T03:06:05;6.65;;;4.18;;
24357;SDS011;13668;52.154;5.580;2023-08-24T03:08:32;4.00;;;3.42;;
24357;SDS011;13668;52.154;5.580;2023-08-24T03:10:59;4.72;;;4.10;;
24357;SDS011;13668;52.154;5.580;2023-08-24T03:13:25;5.32;;;4.70;;
24357;SDS011;13668;52.154;5.580;2023-08-24T03:15:51;6.40;;;4.95;;
24357;SDS011;13668;52.154;5.580;2023-08-24T03:18:18;6.07;;;4.40;;
24357;SDS011;13668;52.154;5.580;2023-08-24T03:20:44;9.15;;;4.93;;
24357;SDS011;13668;52.154;5.580;2023-08-24T03:23:11;7.85;;;4.05;;
24357;SDS011;13668;52.154;5.580;2023-08-24T03:25:38;9.25;;;4.90;;
24357;SDS011;13668;52.154;5.580;2023-08-24T03:28:05;6.68;;;4.95;;
24357;SDS011;13668;52.154;5.580;2023-08-24T03:30:32;5.70;;;4.85;;
24357;SDS011;13668;52.154;5.580;2023-08-24T03:32:59;8.05;;;4.80;;
24357;SDS011;13668;52.154;5.580;2023-08-24T03:35:26;8.45;;;5.00;;
24357;SDS011;13668;52.154;5.580;2023-08-24T03:37:51;6.38;;;4.75;;
24357;SDS011;13668;52.154;5.580;2023-08-24T03:40:17;5.93;;;4.53;;
24357;SDS011;13668;52.154;5.580;2023-08-24T03:42:43;8.05;;;4.40;;
24357;SDS011;13668;52.154;5.580;2023-08-24T03:45:09;4.93;;;3.90;;
24357;SDS011;13668;52.154;5.580;2023-08-24T03:47:35;5.68;;;4.28;;
24357;SDS011;13668;52.154;5.580;2023-08-24T03:50:01;7.72;;;4.50;;
24357;SDS011;13668;52.154;5.580;2023-08-24T03:52:27;5.95;;;4.43;;
24357;SDS011;13668;52.154;5.580;2023-08-24T03:54:53;4.38;;;3.33;;
24357;SDS011;13668;52.154;5.580;2023-08-24T03:57:19;7.32;;;4.80;;
24357;SDS011;13668;52.154;5.580;2023-08-24T03:59:45;6.45;;;4.63;;
24357;SDS011;13668;52.154;5.580;2023-08-24T04:02:11;5.55;;;4.43;;
24357;SDS011;13668;52.154;5.580;2023-08-24T04:04:37;7.57;;;4.65;;
24357;SDS011;13668;52.154;5.580;2023-08-24T04:07:03;7.15;;;4.53;;
24357;SDS011;13668;52.154;5.580;2023-08-24T04:09:30;6.60;;;5.15;;
24357;SDS011;13668;52.154;5.580;2023-08-24T04:11:56;5.72;;;4.57;;
24357;SDS011;13668;52.154;5.580;2023-08-24T04:14:22;4.65;;;3.90;;
24357;SDS011;13668;52.154;5.580;2023-08-24T04:16:48;8.45;;;4.28;;
24357;SDS011;13668;52.154;5.580;2023-08-24T04:19:14;8.25;;;4.57;;
24357;SDS011;13668;52.154;5.580;2023-08-24T04:21:40;5.80;;;4.07;;
24357;SDS011;13668;52.154;5.580;2023-08-24T04:24:06;7.15;;;4.53;;
24357;SDS011;13668;52.154;5.580;2023-08-24T04:26:32;5.80;;;4.80;;
24357;SDS011;13668;52.154;5.580;2023-08-24T04:28:58;6.15;;;4.72;;
24357;SDS011;13668;52.154;5.580;2023-08-24T04:31:24;5.57;;;4.10;;
24357;SDS011;13668;52.154;5.580;2023-08-24T04:33:50;5.82;;;4.18;;
24357;SDS011;13668;52.154;5.580;2023-08-24T04:36:16;5.32;;;4.18;;
24357;SDS011;13668;52.154;5.580;2023-08-24T04:38:42;5.97;;;3.95;;
24357;SDS011;13668;52.154;5.580;2023-08-24T04:41:09;4.80;;;3.92;;
24357;SDS011;13668;52.154;5.580;2023-08-24T04:43:37;5.05;;;4.25;;
24357;SDS011;13668;52.154;5.580;2023-08-24T04:46:03;6.00;;;3.88;;
24357;SDS011;13668;52.154;5.580;2023-08-24T04:48:29;4.55;;;3.92;;
24357;SDS011;13668;52.154;5.580;2023-08-24T04:51:00;4.90;;;3.78;;
24357;SDS011;13668;52.154;5.580;2023-08-24T04:53:26;7.43;;;4.25;;
24357;SDS011;13668;52.154;5.580;2023-08-24T04:55:53;5.43;;;3.92;;
24357;SDS011;13668;52.154;5.580;2023-08-24T04:58:19;6.00;;;4.68;;
24357;SDS011;13668;52.154;5.580;2023-08-24T05:00:45;6.72;;;4.57;;
24357;SDS011;13668;52.154;5.580;2023-08-24T05:03:11;4.40;;;3.60;;
24357;SDS011;13668;52.154;5.580;2023-08-24T05:05:37;7.38;;;3.95;;
24357;SDS011;13668;52.154;5.580;2023-08-24T05:08:03;6.72;;;4.13;;
24357;SDS011;13668;52.154;5.580;2023-08-24T05:10:32;6.20;;;3.90;;
24357;SDS011;13668;52.154;5.580;2023-08-24T05:12:58;6.60;;;3.88;;
24357;SDS011;13668;52.154;5.580;2023-08-24T05:15:24;5.00;;;3.70;;
24357;SDS011;13668;52.154;5.580;2023-08-24T05:17:50;8.15;;;4.60;;
24357;SDS011;13668;52.154;5.580;2023-08-24T05:20:21;4.00;;;3.60;;
24357;SDS011;13668;52.154;5.580;2023-08-24T05:22:47;6.43;;;3.92;;
24357;SDS011;13668;52.154;5.580;2023-08-24T05:25:13;4.97;;;3.92;;
24357;SDS011;13668;52.154;5.580;2023-08-24T05:27:41;8.75;;;4.45;;
24357;SDS011;13668;52.154;5.580;2023-08-24T05:30:07;5.50;;;3.65;;
24357;SDS011;13668;52.154;5.580;2023-08-24T05:32:34;5.07;;;4.22;;
24357;SDS011;13668;52.154;5.580;2023-08-24T05:35:03;4.47;;;4.03;;
24357;SDS011;13668;52.154;5.580;2023-08-24T05:37:29;7.85;;;4.85;;
24357;SDS011;13668;52.154;5.580;2023-08-24T05:39:55;5.28;;;4.00;;
24357;SDS011;13668;52.154;5.580;2023-08-24T05:42:21;5.65;;;4.53;;
24357;SDS011;13668;52.154;5.580;2023-08-24T05:44:47;8.57;;;4.72;;
24357;SDS011;13668;52.154;5.580;2023-08-24T05:47:13;8.80;;;5.03;;
24357;SDS011;13668;52.154;5.580;2023-08-24T05:49:39;4.90;;;4.38;;
24357;SDS011;13668;52.154;5.580;2023-08-24T05:52:05;7.05;;;4.47;;
24357;SDS011;13668;52.154;5.580;2023-08-24T05:54:31;6.43;;;4.55;;
24357;SDS011;13668;52.154;5.580;2023-08-24T05:56:57;14.07;;;4.70;;
24357;SDS011;13668;52.154;5.580;2023-08-24T05:59:25;4.95;;;4.28;;
24357;SDS011;13668;52.154;5.580;2023-08-24T06:01:51;5.65;;;4.40;;
24357;SDS011;13668;52.154;5.580;2023-08-24T06:04:17;6.15;;;5.28;;
24357;SDS011;13668;52.154;5.580;2023-08-24T06:06:43;6.55;;;5.13;;
24357;SDS011;13668;52.154;5.580;2023-08-24T06:09:09;7.45;;;5.22;;
24357;SDS011;13668;52.154;5.580;2023-08-24T06:11:35;7.93;;;4.93;;
24357;SDS011;13668;52.154;5.580;2023-08-24T06:14:01;8.50;;;5.88;;
24357;SDS011;13668;52.154;5.580;2023-08-24T06:16:28;8.40;;;5.72;;
24357;SDS011;13668;52.154;5.580;2023-08-24T06:18:54;9.88;;;5.05;;
24357;SDS011;13668;52.154;5.580;2023-08-24T06:21:20;12.48;;;6.03;;
24357;SDS011;13668;52.154;5.580;2023-08-24T06:23:46;5.93;;;5.28;;
24357;SDS011;13668;52.154;5.580;2023-08-24T06:26:12;7.13;;;5.45;;
24357;SDS011;13668;52.154;5.580;2023-08-24T06:28:38;9.60;;;5.45;;
24357;SDS011;13668;52.154;5.580;2023-08-24T06:31:04;6.60;;;4.80;;
24357;SDS011;13668;52.154;5.580;2023-08-24T06:33:36;9.27;;;5.45;;
24357;SDS011;13668;52.154;5.580;2023-08-24T06:36:03;6.55;;;5.28;;
24357;SDS011;13668;52.154;5.580;2023-08-24T06:38:33;8.00;;;5.30;;
24357;SDS011;13668;52.154;5.580;2023-08-24T06:40:59;7.18;;;5.07;;
24357;SDS011;13668;52.154;5.580;2023-08-24T06:43:25;8.25;;;5.55;;
24357;SDS011;13668;52.154;5.580;2023-08-24T06:45:51;7.13;;;5.47;;
24357;SDS011;13668;52.154;5.580;2023-08-24T06:48:17;7.57;;;5.75;;
24357;SDS011;13668;52.154;5.580;2023-08-24T06:50:43;7.45;;;4.82;;
24357;SDS011;13668;52.154;5.580;2023-08-24T06:53:09;6.45;;;5.35;;
24357;SDS011;13668;52.154;5.580;2023-08-24T06:55:35;6.63;;;5.32;;
24357;SDS011;13668;52.154;5.580;2023-08-24T06:58:02;8.02;;;4.90;;
24357;SDS011;13668;52.154;5.580;2023-08-24T07:00:31;6.10;;;5.05;;
24357;SDS011;13668;52.154;5.580;2023-08-24T07:02:58;6.53;;;5.10;;
24357;SDS011;13668;52.154;5.580;2023-08-24T07:05:24;5.90;;;5.00;;
24357;SDS011;13668;52.154;5.580;2023-08-24T07:07:50;5.32;;;4.65;;
24357;SDS011;13668;52.154;5.580;2023-08-24T07:10:16;5.28;;;4.65;;
24357;SDS011;13668;52.154;5.580;2023-08-24T07:12:42;5.47;;;4.32;;
24357;SDS011;13668;52.154;5.580;2023-08-24T07:15:10;5.60;;;4.95;;
24357;SDS011;13668;52.154;5.580;2023-08-24T07:17:36;5.25;;;4.30;;
24357;SDS011;13668;52.154;5.580;2023-08-24T07:20:02;6.38;;;4.35;;
24357;SDS011;13668;52.154;5.580;2023-08-24T07:22:33;4.45;;;4.00;;
24357;SDS011;13668;52.154;5.580;2023-08-24T07:25:00;4.82;;;3.85;;
24357;SDS011;13668;52.154;5.580;2023-08-24T07:27:26;5.68;;;4.95;;
24357;SDS011;13668;52.154;5.580;2023-08-24T07:29:53;6.15;;;4.40;;
24357;SDS011;13668;52.154;5.580;2023-08-24T07:32:19;5.30;;;4.80;;
24357;SDS011;13668;52.154;5.580;2023-08-24T07:34:45;4.80;;;4.30;;
24357;SDS011;13668;52.154;5.580;2023-08-24T07:37:11;5.32;;;4.75;;
24357;SDS011;13668;52.154;5.580;2023-08-24T07:39:37;6.07;;;4.82;;
24357;SDS011;13668;52.154;5.580;2023-08-24T07:42:03;5.53;;;4.57;;
24357;SDS011;13668;52.154;5.580;2023-08-24T07:44:29;4.70;;;4.28;;
24357;SDS011;13668;52.154;5.580;2023-08-24T07:46:56;4.97;;;4.53;;
24357;SDS011;13668;52.154;5.580;2023-08-24T07:49:22;7.30;;;5.32;;
24357;SDS011;13668;52.154;5.580;2023-08-24T07:51:48;7.60;;;5.28;;
24357;SDS011;13668;52.154;5.580;2023-08-24T07:54:13;5.75;;;4.35;;
24357;SDS011;13668;52.154;5.580;2023-08-24T07:56:39;5.63;;;4.85;;
24357;SDS011;13668;52.154;5.580;2023-08-24T07:59:05;5.80;;;4.80;;
24357;SDS011;13668;52.154;5.580;2023-08-24T08:01:32;5.32;;;4.45;;
24357;SDS011;13668;52.154;5.580;2023-08-24T08:03:58;6.07;;;5.18;;
24357;SDS011;13668;52.154;5.580;2023-08-24T08:06:25;5.57;;;4.15;;
24357;SDS011;13668;52.154;5.580;2023-08-24T08:08:51;4.60;;;4.10;;
24357;SDS011;13668;52.154;5.580;2023-08-24T08:11:18;6.10;;;4.50;;
24357;SDS011;13668;52.154;5.580;2023-08-24T08:13:44;5.57;;;4.57;;
24357;SDS011;13668;52.154;5.580;2023-08-24T08:16:10;6.72;;;4.65;;
24357;SDS011;13668;52.154;5.580;2023-08-24T08:18:36;5.88;;;4.70;;
24357;SDS011;13668;52.154;5.580;2023-08-24T08:21:08;6.55;;;5.32;;
24357;SDS011;13668;52.154;5.580;2023-08-24T08:23:35;5.68;;;5.18;;
24357;SDS011;13668;52.154;5.580;2023-08-24T08:26:01;6.47;;;4.78;;
24357;SDS011;13668;52.154;5.580;2023-08-24T08:28:28;5.47;;;4.68;;
24357;SDS011;13668;52.154;5.580;2023-08-24T08:30:54;6.90;;;5.40;;
24357;SDS011;13668;52.154;5.580;2023-08-24T08:33:20;6.63;;;5.32;;
24357;SDS011;13668;52.154;5.580;2023-08-24T08:35:46;5.63;;;4.43;;
24357;SDS011;13668;52.154;5.580;2023-08-24T08:38:12;4.93;;;4.22;;
24357;SDS011;13668;52.154;5.580;2023-08-24T08:40:38;5.90;;;4.25;;
24357;SDS011;13668;52.154;5.580;2023-08-24T08:43:06;5.90;;;4.85;;
24357;SDS011;13668;52.154;5.580;2023-08-24T08:45:32;7.97;;;4.40;;
24357;SDS011;13668;52.154;5.580;2023-08-24T08:47:59;6.45;;;5.15;;
24357;SDS011;13668;52.154;5.580;2023-08-24T08:50:26;5.80;;;4.55;;
24357;SDS011;13668;52.154;5.580;2023-08-24T08:52:52;4.82;;;3.28;;
24357;SDS011;13668;52.154;5.580;2023-08-24T08:55:18;4.68;;;3.35;;
24357;SDS011;13668;52.154;5.580;2023-08-24T08:57:48;3.45;;;3.15;;
24357;SDS011;13668;52.154;5.580;2023-08-24T09:00:17;3.65;;;3.20;;
24357;SDS011;13668;52.154;5.580;2023-08-24T09:02:44;4.00;;;3.25;;
24357;SDS011;13668;52.154;5.580;2023-08-24T09:05:12;5.63;;;3.60;;
24357;SDS011;13668;52.154;5.580;2023-08-24T09:07:41;3.90;;;3.47;;
24357;SDS011;13668;52.154;5.580;2023-08-24T09:10:07;4.63;;;3.42;;
24357;SDS011;13668;52.154;5.580;2023-08-24T09:12:34;5.20;;;2.97;;
24357;SDS011;13668;52.154;5.580;2023-08-24T09:15:04;3.83;;;2.97;;
24357;SDS011;13668;52.154;5.580;2023-08-24T09:17:31;4.10;;;2.83;;
24357;SDS011;13668;52.154;5.580;2023-08-24T09:19:58;4.60;;;2.85;;
24357;SDS011;13668;52.154;5.580;2023-08-24T09:22:24;3.33;;;2.78;;
24357;SDS011;13668;52.154;5.580;2023-08-24T09:24:50;4.93;;;2.80;;
24357;SDS011;13668;52.154;5.580;2023-08-24T09:27:19;5.32;;;2.78;;
24357;SDS011;13668;52.154;5.580;2023-08-24T09:29:49;3.85;;;2.65;;
24357;SDS011;13668;52.154;5.580;2023-08-24T09:32:15;3.53;;;2.67;;
24357;SDS011;13668;52.154;5.580;2023-08-24T09:34:41;4.75;;;3.00;;
24357;SDS011;13668;52.154;5.580;2023-08-24T09:37:14;3.17;;;2.65;;
24357;SDS011;13668;52.154;5.580;2023-08-24T09:39:41;3.22;;;2.65;;
24357;SDS011;13668;52.154;5.580;2023-08-24T09:42:07;5.40;;;3.08;;
24357;SDS011;13668;52.154;5.580;2023-08-24T09:44:33;2.45;;;1.98;;
24357;SDS011;13668;52.154;5.580;2023-08-24T09:46:59;3.03;;;2.72;;
24357;SDS011;13668;52.154;5.580;2023-08-24T09:49:25;2.40;;;2.20;;
24357;SDS011;13668;52.154;5.580;2023-08-24T09:51:51;3.92;;;2.88;;
24357;SDS011;13668;52.154;5.580;2023-08-24T09:54:27;3.53;;;3.00;;
24357;SDS011;13668;52.154;5.580;2023-08-24T09:56:54;2.60;;;2.40;;
24357;SDS011;13668;52.154;5.580;2023-08-24T09:59:23;3.83;;;3.03;;
24357;SDS011;13668;52.154;5.580;2023-08-24T10:01:52;2.78;;;2.55;;
24357;SDS011;13668;52.154;5.580;2023-08-24T10:04:22;3.42;;;2.55;;
24357;SDS011;13668;52.154;5.580;2023-08-24T10:06:51;3.33;;;3.03;;
24357;SDS011;13668;52.154;5.580;2023-08-24T10:09:22;3.47;;;3.08;;
24357;SDS011;13668;52.154;5.580;2023-08-24T10:11:52;3.95;;;2.80;;
24357;SDS011;13668;52.154;5.580;2023-08-24T10:14:21;3.92;;;3.47;;
24357;SDS011;13668;52.154;5.580;2023-08-24T10:16:50;3.70;;;3.03;;
24357;SDS011;13668;52.154;5.580;2023-08-24T10:19:17;4.20;;;2.70;;
24357;SDS011;13668;52.154;5.580;2023-08-24T10:21:43;10.25;;;3.83;;
24357;SDS011;13668;52.154;5.580;2023-08-24T10:24:10;4.63;;;3.13;;
24357;SDS011;13668;52.154;5.580;2023-08-24T10:26:37;3.45;;;3.00;;
24357;SDS011;13668;52.154;5.580;2023-08-24T10:29:06;2.90;;;2.63;;
24357;SDS011;13668;52.154;5.580;2023-08-24T10:31:32;4.88;;;3.20;;
24357;SDS011;13668;52.154;5.580;2023-08-24T10:33:59;3.55;;;2.67;;
24357;SDS011;13668;52.154;5.580;2023-08-24T10:36:25;3.72;;;3.38;;
24357;SDS011;13668;52.154;5.580;2023-08-24T10:38:53;2.95;;;2.65;;
24357;SDS011;13668;52.154;5.580;2023-08-24T10:41:25;3.13;;;2.67;;
24357;SDS011;13668;52.154;5.580;2023-08-24T10:43:51;3.58;;;2.70;;
24357;SDS011;13668;52.154;5.580;2023-08-24T10:46:17;3.53;;;2.40;;
24357;SDS011;13668;52.154;5.580;2023-08-24T10:51:20;2.38;;;2.17;;
24357;SDS011;13668;52.154;5.580;2023-08-24T10:53:51;3.28;;;2.25;;
24357;SDS011;13668;52.154;5.580;2023-08-24T10:56:17;4.50;;;2.97;;
24357;SDS011;13668;52.154;5.580;2023-08-24T10:58:44;3.58;;;2.40;;
24357;SDS011;13668;52.154;5.580;2023-08-24T11:01:16;2.60;;;2.40;;
24357;SDS011;13668;52.154;5.580;2023-08-24T11:03:48;4.05;;;3.40;;
24357;SDS011;13668;52.154;5.580;2023-08-24T11:06:19;3.85;;;3.03;;
24357;SDS011;13668;52.154;5.580;2023-08-24T11:08:46;3.30;;;3.00;;
24357;SDS011;13668;52.154;5.580;2023-08-24T11:11:19;2.80;;;2.60;;
24357;SDS011;13668;52.154;5.580;2023-08-24T11:14:12;4.82;;;3.25;;
24357;SDS011;13668;52.154;5.580;2023-08-24T11:16:44;4.25;;;3.78;;
24357;SDS011;13668;52.154;5.580;2023-08-24T11:19:10;7.43;;;4.35;;
24357;SDS011;13668;52.154;5.580;2023-08-24T11:21:38;5.88;;;4.15;;
24357;SDS011;13668;52.154;5.580;2023-08-24T11:24:04;3.35;;;2.92;;
24357;SDS011;13668;52.154;5.580;2023-08-24T11:26:30;4.00;;;3.67;;
24357;SDS011;13668;52.154;5.580;2023-08-24T11:28:56;5.53;;;4.30;;
24357;SDS011;13668;52.154;5.580;2023-08-24T11:31:23;7.28;;;4.75;;
24357;SDS011;13668;52.154;5.580;2023-08-24T11:33:53;5.93;;;4.53;;
24357;SDS011;13668;52.154;5.580;2023-08-24T11:36:22;4.40;;;4.00;;
24357;SDS011;13668;52.154;5.580;2023-08-24T11:38:51;6.90;;;4.35;;
24357;SDS011;13668;52.154;5.580;2023-08-24T11:41:18;10.93;;;4.05;;
24357;SDS011;13668;52.154;5.580;2023-08-24T11:43:44;5.30;;;4.53;;
24357;SDS011;13668;52.154;5.580;2023-08-24T11:46:12;6.97;;;4.70;;
24357;SDS011;13668;52.154;5.580;2023-08-24T11:48:38;6.32;;;4.70;;
24357;SDS011;13668;52.154;5.580;2023-08-24T11:51:07;4.95;;;4.43;;
24357;SDS011;13668;52.154;5.580;2023-08-24T11:53:36;6.43;;;4.70;;
24357;SDS011;13668;52.154;5.580;2023-08-24T11:56:02;5.63;;;4.75;;
24357;SDS011;13668;52.154;5.580;2023-08-24T11:58:30;9.10;;;5.18;;
24357;SDS011;13668;52.154;5.580;2023-08-24T12:00:56;6.85;;;5.25;;
24357;SDS011;13668;52.154;5.580;2023-08-24T12:03:22;10.00;;;5.80;;
24357;SDS011;13668;52.154;5.580;2023-08-24T12:05:49;7.63;;;5.28;;
24357;SDS011;13668;52.154;5.580;2023-08-24T12:08:15;7.38;;;5.40;;
24357;SDS011;13668;52.154;5.580;2023-08-24T12:10:42;7.25;;;5.75;;
24357;SDS011;13668;52.154;5.580;2023-08-24T12:13:08;7.38;;;6.18;;
24357;SDS011;13668;52.154;5.580;2023-08-24T12:15:35;6.38;;;4.85;;
24357;SDS011;13668;52.154;5.580;2023-08-24T12:18:14;6.15;;;5.50;;
24357;SDS011;13668;52.154;5.580;2023-08-24T12:20:40;7.45;;;6.57;;
24357;SDS011;13668;52.154;5.580;2023-08-24T12:23:07;8.63;;;6.70;;
24357;SDS011;13668;52.154;5.580;2023-08-24T12:25:36;6.20;;;5.53;;
24357;SDS011;13668;52.154;5.580;2023-08-24T12:30:52;6.45;;;5.50;;
24357;SDS011;13668;52.154;5.580;2023-08-24T12:33:25;6.53;;;4.85;;
24357;SDS011;13668;52.154;5.580;2023-08-24T12:35:51;7.85;;;6.68;;
24357;SDS011;13668;52.154;5.580;2023-08-24T12:38:18;8.52;;;5.80;;
24357;SDS011;13668;52.154;5.580;2023-08-24T12:40:44;7.07;;;5.53;;
24357;SDS011;13668;52.154;5.580;2023-08-24T12:43:10;6.25;;;4.63;;
24357;SDS011;13668;52.154;5.580;2023-08-24T12:45:36;6.75;;;4.97;;
24357;SDS011;13668;52.154;5.580;2023-08-24T12:48:03;10.43;;;6.57;;
24357;SDS011;13668;52.154;5.580;2023-08-24T12:50:29;7.57;;;5.85;;
24357;SDS011;13668;52.154;5.580;2023-08-24T12:52:55;7.55;;;6.63;;
24357;SDS011;13668;52.154;5.580;2023-08-24T12:55:24;7.47;;;6.38;;
24357;SDS011;13668;52.154;5.580;2023-08-24T12:57:50;8.13;;;6.35;;
24357;SDS011;13668;52.154;5.580;2023-08-24T13:00:17;7.90;;;6.63;;
24357;SDS011;13668;52.154;5.580;2023-08-24T13:02:43;7.55;;;5.68;;
24357;SDS011;13668;52.154;5.580;2023-08-24T13:05:09;6.70;;;5.63;;
24357;SDS011;13668;52.154;5.580;2023-08-24T13:07:36;7.78;;;6.90;;
24357;SDS011;13668;52.154;5.580;2023-08-24T13:10:02;7.20;;;6.10;;
24357;SDS011;13668;52.154;5.580;2023-08-24T13:12:29;7.90;;;6.30;;
24357;SDS011;13668;52.154;5.580;2023-08-24T13:14:55;7.43;;;5.82;;
24357;SDS011;13668;52.154;5.580;2023-08-24T13:17:21;7.18;;;6.20;;
24357;SDS011;13668;52.154;5.580;2023-08-24T13:19:47;5.70;;;4.95;;
24357;SDS011;13668;52.154;5.580;2023-08-24T13:22:14;9.25;;;6.40;;
24357;SDS011;13668;52.154;5.580;2023-08-24T13:24:40;9.00;;;6.15;;
24357;SDS011;13668;52.154;5.580;2023-08-24T13:27:08;6.85;;;5.72;;
24357;SDS011;13668;52.154;5.580;2023-08-24T13:29:38;6.97;;;6.00;;
24357;SDS011;13668;52.154;5.580;2023-08-24T13:32:04;6.80;;;5.32;;
24357;SDS011;13668;52.154;5.580;2023-08-24T13:34:30;7.68;;;6.07;;
24357;SDS011;13668;52.154;5.580;2023-08-24T13:36:57;7.47;;;6.70;;
24357;SDS011;13668;52.154;5.580;2023-08-24T13:39:25;10.43;;;6.43;;
24357;SDS011;13668;52.154;5.580;2023-08-24T13:41:53;8.95;;;6.70;;
24357;SDS011;13668;52.154;5.580;2023-08-24T13:44:19;9.25;;;6.07;;
24357;SDS011;13668;52.154;5.580;2023-08-24T13:46:45;10.15;;;6.50;;
24357;SDS011;13668;52.154;5.580;2023-08-24T13:49:11;6.70;;;5.70;;
24357;SDS011;13668;52.154;5.580;2023-08-24T13:51:37;8.60;;;5.72;;
24357;SDS011;13668;52.154;5.580;2023-08-24T13:54:12;7.82;;;5.30;;
24357;SDS011;13668;52.154;5.580;2023-08-24T13:56:39;7.40;;;5.38;;
24357;SDS011;13668;52.154;5.580;2023-08-24T13:59:05;7.60;;;5.78;;
24357;SDS011;13668;52.154;5.580;2023-08-24T14:01:31;4.85;;;4.32;;
24357;SDS011;13668;52.154;5.580;2023-08-24T14:03:58;7.00;;;4.85;;
24357;SDS011;13668;52.154;5.580;2023-08-24T14:06:24;7.75;;;4.68;;
24357;SDS011;13668;52.154;5.580;2023-08-24T14:08:50;5.47;;;4.90;;
24357;SDS011;13668;52.154;5.580;2023-08-24T14:11:16;6.05;;;4.63;;
24357;SDS011;13668;52.154;5.580;2023-08-24T14:13:42;5.43;;;4.80;;
24357;SDS011;13668;52.154;5.580;2023-08-24T14:16:08;7.55;;;5.82;;
24357;SDS011;13668;52.154;5.580;2023-08-24T14:18:34;7.32;;;6.28;;
24357;SDS011;13668;52.154;5.580;2023-08-24T14:21:01;7.35;;;6.63;;
24357;SDS011;13668;52.154;5.580;2023-08-24T14:23:27;8.70;;;6.78;;
24357;SDS011;13668;52.154;5.580;2023-08-24T14:25:53;12.27;;;7.80;;
24357;SDS011;13668;52.154;5.580;2023-08-24T14:28:20;10.88;;;8.48;;
24357;SDS011;13668;52.154;5.580;2023-08-24T14:30:47;9.65;;;7.63;;
24357;SDS011;13668;52.154;5.580;2023-08-24T14:33:13;10.93;;;8.80;;
24357;SDS011;13668;52.154;5.580;2023-08-24T14:35:39;8.75;;;7.35;;
24357;SDS011;13668;52.154;5.580;2023-08-24T14:38:05;10.45;;;8.68;;
24357;SDS011;13668;52.154;5.580;2023-08-24T14:40:31;12.38;;;9.20;;
24357;SDS011;13668;52.154;5.580;2023-08-24T14:42:57;10.80;;;7.70;;
24357;SDS011;13668;52.154;5.580;2023-08-24T14:45:23;13.60;;;9.85;;
24357;SDS011;13668;52.154;5.580;2023-08-24T14:47:49;12.25;;;10.52;;
24357;SDS011;13668;52.154;5.580;2023-08-24T14:50:15;14.70;;;11.98;;
24357;SDS011;13668;52.154;5.580;2023-08-24T14:52:41;17.55;;;12.75;;